Startpagina
METAR-TAF:

METAR-TAF

Vliegvelden :

Nörvenich, Duitsland

breedte: 50-50N, lengte: 006-40E, hoogte: 118 m

Actueel weer

Dit bericht is 10 minuten geleden gemaakt, om 00:20 UTC
Wind 4 kt uit het westzuidwesten
Temperatuur 18°C
Vochtigheid 68%
Druk 1019 hPa
Zicht 10 km of meer
Weinig wolken op 34000 ft

METAR: ETNN 150020Z 24004KT 9999 FEW340 18/12 Q1019 BLU+

Tijdstip: 02:30 (00:30 UTC)

Verwachting

Dit bericht is 11 uur en het 10 minuten geleden gemaakt, om 13:20 UTC
Verwachting geldig van 14 om 14 UTC tot 14 om 23 UTC
Wind 5 kt uit het westen
Zicht 10 km of meer
Onbewolkt

TAF: ETNN 141320Z 1414/1423 28005KT 9999 NSW SKC BY ETGL

Waarnemingen en weersverwachtingen van meer dan 4000 vliegvelden (METAR en TAF).

De beschikbare stations zijn de gele en rode punten op de kaart.

Ga met uw muis naar het station om de naam te zien.

Klik dan om waarnemingen en weersverwachtingen te zien.

kaart wijzigen: klik op de groene knoppen met een zwart kruis om in te zoomen, op de groene knop met een streepje om uit te zoomen of op de groene pijlen voor aangrenzende kaarten.


METAR-TAF: